createdAt,value
2023-03-27T00:01:17.782Z,2.51
2023-03-27T00:04:05.433Z,2.51
2023-03-27T00:06:51.623Z,2.49
2023-03-27T00:09:39.072Z,2.43
2023-03-27T00:12:25.026Z,2.39
2023-03-27T00:15:13.090Z,2.35
2023-03-27T00:18:03.870Z,2.27
2023-03-27T00:20:51.646Z,2.26
2023-03-27T00:23:37.517Z,2.21
2023-03-27T00:26:23.301Z,2.17
2023-03-27T00:29:09.333Z,2.10
2023-03-27T00:31:55.409Z,2.07
2023-03-27T00:34:41.794Z,1.96
2023-03-27T00:37:29.107Z,1.96
2023-03-27T00:40:17.578Z,1.90
2023-03-27T00:43:18.660Z,1.86
2023-03-27T00:46:05.892Z,1.76
2023-03-27T00:48:52.254Z,1.72
2023-03-27T00:51:38.217Z,1.67
2023-03-27T00:54:29.884Z,1.63
2023-03-27T00:57:19.027Z,1.60
2023-03-27T01:00:12.848Z,1.53
2023-03-27T01:03:01.041Z,1.46
2023-03-27T01:05:47.541Z,1.38
2023-03-27T01:08:34.538Z,1.33
2023-03-27T01:11:23.438Z,1.30
2023-03-27T01:14:12.187Z,1.23
2023-03-27T01:17:02.291Z,1.15
2023-03-27T01:19:57.520Z,1.14
2023-03-27T01:22:58.183Z,1.09
2023-03-27T01:25:46.446Z,1.02
2023-03-27T01:28:37.837Z,0.98
2023-03-27T01:31:30.637Z,0.89
2023-03-27T01:34:22.270Z,0.84
2023-03-27T01:37:18.349Z,0.72
2023-03-27T01:40:07.792Z,0.73
2023-03-27T01:42:55.475Z,0.64
2023-03-27T01:45:42.340Z,0.56
2023-03-27T01:48:29.525Z,0.53
2023-03-27T01:51:16.879Z,0.53
2023-03-27T01:54:03.043Z,0.50
2023-03-27T01:56:53.635Z,0.49
2023-03-27T01:59:41.356Z,0.43
2023-03-27T02:02:28.092Z,0.42
2023-03-27T02:05:15.134Z,0.42
2023-03-27T02:08:03.845Z,0.42
2023-03-27T02:10:51.139Z,0.38
2023-03-27T02:13:39.671Z,0.39
2023-03-27T02:16:26.574Z,0.35
2023-03-27T02:19:14.250Z,0.34
2023-03-27T02:22:00.216Z,0.36
2023-03-27T02:24:46.202Z,0.31
2023-03-27T02:27:33.310Z,0.34
2023-03-27T02:30:21.761Z,0.34
2023-03-27T02:33:14.602Z,0.34
2023-03-27T02:36:03.144Z,0.33
2023-03-27T02:38:51.483Z,0.33
2023-03-27T02:41:37.899Z,0.30
2023-03-27T02:44:46.457Z,0.31
2023-03-27T02:47:35.301Z,0.30
2023-03-27T02:50:22.745Z,0.26
2023-03-27T02:53:10.336Z,0.26
2023-03-27T02:55:57.192Z,0.24
2023-03-27T02:58:45.026Z,0.24
2023-03-27T03:01:41.123Z,0.24
2023-03-27T03:04:41.851Z,0.22
2023-03-27T03:07:34.643Z,0.22
2023-03-27T03:10:21.096Z,0.21
2023-03-27T03:13:06.822Z,0.21
2023-03-27T03:15:52.655Z,0.20
2023-03-27T03:18:38.584Z,0.21
2023-03-27T03:21:25.593Z,0.22
2023-03-27T03:24:12.226Z,0.19
2023-03-27T03:26:59.893Z,0.21
2023-03-27T03:29:46.192Z,0.22
2023-03-27T03:32:39.428Z,0.23
2023-03-27T03:35:26.461Z,0.20
2023-03-27T03:38:13.974Z,0.22
2023-03-27T03:41:05.719Z,0.21
2023-03-27T03:43:52.003Z,0.19
2023-03-27T03:46:38.349Z,0.20
2023-03-27T03:49:24.614Z,0.19
2023-03-27T03:52:10.462Z,0.22
2023-03-27T03:54:57.696Z,0.20
2023-03-27T03:57:46.955Z,0.19
2023-03-27T04:00:38.957Z,0.18
2023-03-27T04:03:32.194Z,0.17
2023-03-27T04:06:20.822Z,0.15
2023-03-27T04:09:07.683Z,0.13
2023-03-27T04:12:24.320Z,0.10
2023-03-27T04:15:17.377Z,0.05
2023-03-27T04:18:32.450Z,0.04
2023-03-27T04:21:20.319Z,0.01
2023-03-27T04:24:08.545Z,-0.01
2023-03-27T04:27:03.867Z,-0.03
2023-03-27T04:30:02.158Z,-0.02
2023-03-27T04:32:51.356Z,-0.03
2023-03-27T04:36:09.890Z,-0.03
2023-03-27T04:39:10.317Z,-0.06
2023-03-27T04:41:58.332Z,-0.10
2023-03-27T04:44:47.560Z,-0.10
2023-03-27T04:47:38.137Z,-0.13
2023-03-27T04:50:25.145Z,-0.16
2023-03-27T04:53:11.590Z,-0.15
2023-03-27T04:56:03.242Z,-0.18
2023-03-27T04:58:54.178Z,-0.21
2023-03-27T05:01:40.464Z,-0.21
2023-03-27T05:04:49.254Z,-0.25
2023-03-27T05:07:38.115Z,-0.27
2023-03-27T05:10:26.438Z,-0.32
2023-03-27T05:13:12.295Z,-0.34
2023-03-27T05:15:59.167Z,-0.34
2023-03-27T05:18:46.959Z,-0.34
2023-03-27T05:21:34.481Z,-0.36
2023-03-27T05:24:20.912Z,-0.39
2023-03-27T05:27:07.674Z,-0.40
2023-03-27T05:29:55.655Z,-0.39
2023-03-27T05:32:41.826Z,-0.38
2023-03-27T05:35:34.678Z,-0.37
2023-03-27T05:38:22.569Z,-0.35
2023-03-27T05:41:26.005Z,-0.33
2023-03-27T05:44:12.176Z,-0.32
2023-03-27T05:47:02.041Z,-0.29
2023-03-27T05:49:49.910Z,-0.27
2023-03-27T05:52:36.398Z,-0.25
2023-03-27T05:55:26.986Z,-0.23
2023-03-27T05:58:15.118Z,-0.20
2023-03-27T06:01:02.413Z,-0.19
2023-03-27T06:03:49.383Z,-0.17
2023-03-27T06:06:40.773Z,-0.16
2023-03-27T06:09:26.838Z,-0.12
2023-03-27T06:12:32.636Z,-0.10
2023-03-27T06:15:27.350Z,-0.04
2023-03-27T06:18:34.471Z,0.01
2023-03-27T06:21:24.617Z,0.05
2023-03-27T06:24:16.763Z,0.10
2023-03-27T06:27:03.720Z,0.15
2023-03-27T06:29:53.319Z,0.26
2023-03-27T06:32:43.703Z,0.38
2023-03-27T06:35:31.629Z,0.48
2023-03-27T06:38:31.441Z,0.57
2023-03-27T06:41:17.512Z,0.69
2023-03-27T06:44:32.871Z,0.89
2023-03-27T06:47:29.698Z,1.08
2023-03-27T06:50:41.669Z,1.33
2023-03-27T06:53:28.839Z,1.53
2023-03-27T06:56:16.617Z,1.76
2023-03-27T06:59:22.625Z,1.97
2023-03-27T07:02:14.225Z,2.17
2023-03-27T07:05:05.526Z,2.42
2023-03-27T07:08:03.145Z,2.68
2023-03-27T07:11:11.585Z,2.94
2023-03-27T07:14:02.528Z,3.10
2023-03-27T07:16:49.840Z,3.34
2023-03-27T07:19:36.413Z,3.59
2023-03-27T07:22:28.023Z,3.74
2023-03-27T07:25:16.225Z,3.90
2023-03-27T07:28:04.374Z,4.08
2023-03-27T07:30:52.054Z,4.25
2023-03-27T07:33:40.938Z,4.33
2023-03-27T07:36:26.846Z,4.41
2023-03-27T07:39:20.681Z,4.50
2023-03-27T07:42:07.157Z,4.48
2023-03-27T07:45:07.889Z,4.39
2023-03-27T07:47:54.087Z,4.55
2023-03-27T07:50:40.323Z,4.71
2023-03-27T07:53:33.999Z,4.78
2023-03-27T07:56:28.881Z,4.89
2023-03-27T07:59:50.479Z,5.05
2023-03-27T08:02:43.610Z,5.15
2023-03-27T08:05:29.856Z,5.21
2023-03-27T08:08:25.190Z,5.35
2023-03-27T08:11:30.428Z,5.44
2023-03-27T08:14:17.941Z,5.52
2023-03-27T08:17:15.174Z,5.50
2023-03-27T08:20:09.124Z,5.60
2023-03-27T08:23:04.093Z,5.72
2023-03-27T08:25:50.184Z,5.79
2023-03-27T08:28:38.763Z,5.98
2023-03-27T08:31:29.049Z,6.36
2023-03-27T08:34:18.264Z,6.66
2023-03-27T08:37:08.676Z,6.82
2023-03-27T08:40:07.255Z,7.03
2023-03-27T08:42:54.322Z,7.13
2023-03-27T08:45:42.221Z,7.19
2023-03-27T08:48:30.719Z,7.49
2023-03-27T08:51:18.095Z,8.01
2023-03-27T08:54:06.106Z,8.18
2023-03-27T08:56:52.407Z,8.43
2023-03-27T08:59:38.391Z,8.61
2023-03-27T09:02:26.254Z,9.08
2023-03-27T09:05:17.829Z,9.21
2023-03-27T09:08:06.121Z,9.10
2023-03-27T09:10:53.039Z,9.22
2023-03-27T09:13:45.708Z,9.17
2023-03-27T09:16:32.241Z,9.58
2023-03-27T09:19:32.373Z,9.78
2023-03-27T09:22:19.942Z,9.98
2023-03-27T09:25:23.159Z,9.90
2023-03-27T09:28:14.206Z,10.15
2023-03-27T09:31:32.978Z,10.20
2023-03-27T09:34:23.897Z,10.20
2023-03-27T09:37:11.794Z,10.08
2023-03-27T09:39:59.491Z,9.85
2023-03-27T09:42:47.665Z,10.22
2023-03-27T09:45:33.849Z,10.26
2023-03-27T09:48:25.346Z,10.12
2023-03-27T09:51:26.109Z,10.09
2023-03-27T09:54:14.536Z,9.68
2023-03-27T09:57:04.244Z,9.55
2023-03-27T09:59:56.189Z,9.53
2023-03-27T10:02:42.285Z,9.12
2023-03-27T10:05:32.557Z,9.17
2023-03-27T10:08:27.279Z,9.17
2023-03-27T10:11:32.521Z,9.36
2023-03-27T10:14:26.956Z,9.26
2023-03-27T10:17:15.128Z,9.19
2023-03-27T10:20:03.061Z,9.60
2023-03-27T10:22:55.616Z,9.78
2023-03-27T10:25:49.963Z,9.78
2023-03-27T10:28:48.932Z,10.10
2023-03-27T10:31:39.773Z,10.17
2023-03-27T10:34:37.787Z,10.07
2023-03-27T10:37:49.801Z,10.57
2023-03-27T10:40:51.500Z,10.83
2023-03-27T10:43:49.078Z,11.28
2023-03-27T10:46:39.446Z,11.70
2023-03-27T10:49:29.812Z,12.17
2023-03-27T10:52:19.195Z,12.23
2023-03-27T10:55:24.034Z,11.98
2023-03-27T10:58:19.873Z,11.55
2023-03-27T11:01:06.733Z,10.71
2023-03-27T11:03:54.398Z,10.28
2023-03-27T11:06:43.866Z,9.65
2023-03-27T11:09:33.516Z,9.58
2023-03-27T11:12:27.334Z,9.36
2023-03-27T11:15:16.618Z,8.81
2023-03-27T11:18:04.378Z,8.53
2023-03-27T11:21:02.068Z,8.40
2023-03-27T11:24:00.708Z,7.64
2023-03-27T11:26:57.156Z,7.49
2023-03-27T11:29:45.362Z,7.22
2023-03-27T11:32:34.773Z,7.18
2023-03-27T11:35:22.959Z,7.66
2023-03-27T11:38:21.713Z,8.06
2023-03-27T11:41:10.291Z,8.42
2023-03-27T11:43:56.970Z,8.41
2023-03-27T11:47:18.751Z,8.90
2023-03-27T11:50:11.685Z,8.91
2023-03-27T11:53:12.164Z,9.16
2023-03-27T11:56:24.633Z,9.60
2023-03-27T11:59:21.583Z,9.99
2023-03-27T12:02:23.419Z,10.37
2023-03-27T12:05:10.492Z,10.44
2023-03-27T12:08:06.749Z,10.41
2023-03-27T12:10:53.055Z,10.53
2023-03-27T12:14:01.171Z,10.45
2023-03-27T12:17:16.578Z,10.23
2023-03-27T12:20:20.217Z,9.94
2023-03-27T12:23:17.352Z,9.64
2023-03-27T12:26:30.982Z,9.64
2023-03-27T12:29:28.902Z,9.37
2023-03-27T12:32:21.834Z,9.20
2023-03-27T12:35:08.704Z,8.83
2023-03-27T12:38:01.427Z,8.67
2023-03-27T12:41:00.386Z,8.50
2023-03-27T12:43:48.135Z,8.36
2023-03-27T12:46:45.838Z,8.19
2023-03-27T12:52:28.777Z,9.04
2023-03-27T12:55:32.017Z,9.30
2023-03-27T12:58:30.186Z,9.76
2023-03-27T13:01:27.559Z,10.11
2023-03-27T13:04:23.233Z,10.32
2023-03-27T13:07:11.714Z,10.50
2023-03-27T13:10:22.308Z,10.31
2023-03-27T13:13:16.993Z,10.32
2023-03-27T13:16:11.696Z,10.19
2023-03-27T13:19:08.300Z,10.23
2023-03-27T13:22:13.847Z,10.37
2023-03-27T13:25:07.542Z,10.61
2023-03-27T13:28:01.756Z,10.76
2023-03-27T13:30:48.696Z,10.85
2023-03-27T13:34:11.518Z,10.82
2023-03-27T13:37:07.287Z,10.89
2023-03-27T13:40:07.566Z,10.75
2023-03-27T13:42:57.946Z,10.86
2023-03-27T13:45:46.919Z,10.42
2023-03-27T13:49:00.468Z,10.32
2023-03-27T13:52:08.532Z,9.41
2023-03-27T13:54:59.616Z,8.53
2023-03-27T13:58:06.621Z,8.37
2023-03-27T14:00:56.694Z,8.02
2023-03-27T14:04:12.634Z,7.62
2023-03-27T14:07:07.633Z,7.37
2023-03-27T14:09:58.402Z,7.06
2023-03-27T14:12:58.162Z,6.82
2023-03-27T14:15:59.035Z,6.79
2023-03-27T14:18:56.863Z,6.45
2023-03-27T14:21:49.751Z,6.31
2023-03-27T14:24:38.079Z,6.21
2023-03-27T14:27:33.340Z,6.18
2023-03-27T14:30:21.659Z,6.18
2023-03-27T14:33:24.544Z,6.17
2023-03-27T14:36:16.503Z,6.06
2023-03-27T14:39:03.807Z,6.03
2023-03-27T14:42:01.204Z,6.00
2023-03-27T14:44:48.558Z,5.92
2023-03-27T14:47:35.869Z,5.85
2023-03-27T14:50:23.533Z,5.85
2023-03-27T14:53:14.884Z,5.76
2023-03-27T14:56:37.902Z,5.75
2023-03-27T14:59:31.463Z,5.69
2023-03-27T15:02:20.626Z,5.62
2023-03-27T15:05:09.511Z,5.66
2023-03-27T15:07:58.675Z,5.65
2023-03-27T15:11:16.237Z,5.57
2023-03-27T15:14:28.856Z,5.50
2023-03-27T15:17:15.784Z,5.46
2023-03-27T15:20:06.438Z,5.42
2023-03-27T15:22:53.417Z,5.32
2023-03-27T15:25:42.739Z,5.19
2023-03-27T15:28:29.451Z,5.11
2023-03-27T15:31:15.169Z,5.09
2023-03-27T15:34:03.260Z,5.07
2023-03-27T15:36:50.279Z,5.02
2023-03-27T15:39:37.628Z,4.99
2023-03-27T15:42:24.941Z,4.94
2023-03-27T15:45:11.200Z,4.96
2023-03-27T15:48:01.059Z,4.88
2023-03-27T15:50:56.754Z,4.88
2023-03-27T15:53:44.818Z,4.89
2023-03-27T15:56:34.413Z,4.87
2023-03-27T15:59:22.848Z,4.88
2023-03-27T16:02:11.656Z,4.93
2023-03-27T16:04:58.534Z,4.96
2023-03-27T16:07:46.462Z,5.00
2023-03-27T16:10:33.824Z,5.10
2023-03-27T16:13:26.486Z,5.15
2023-03-27T16:16:22.570Z,5.18
2023-03-27T16:19:11.498Z,5.26
2023-03-27T16:21:57.663Z,5.32
2023-03-27T16:24:43.209Z,5.38
2023-03-27T16:27:29.496Z,5.40
2023-03-27T16:30:21.615Z,5.50
2023-03-27T16:33:12.389Z,5.60
2023-03-27T16:36:00.536Z,5.73
2023-03-27T16:38:47.154Z,5.83
2023-03-27T16:41:32.893Z,5.93
2023-03-27T16:44:19.605Z,5.97
2023-03-27T16:47:05.649Z,6.05
2023-03-27T16:50:10.177Z,6.05
2023-03-27T16:52:57.499Z,6.02
2023-03-27T16:55:44.697Z,5.81
2023-03-27T16:58:30.512Z,5.83
2023-03-27T17:01:16.274Z,5.73
2023-03-27T17:04:02.297Z,5.66
2023-03-27T17:06:50.008Z,5.62
2023-03-27T17:09:36.222Z,5.59
2023-03-27T17:12:21.981Z,5.53
2023-03-27T17:15:08.498Z,5.49
2023-03-27T17:17:54.639Z,5.42
2023-03-27T17:20:40.675Z,5.34
2023-03-27T17:23:27.796Z,5.29
2023-03-27T17:26:16.021Z,5.16
2023-03-27T17:29:03.239Z,5.12
2023-03-27T17:31:49.412Z,4.92
2023-03-27T17:34:35.750Z,4.85
2023-03-27T17:37:22.042Z,4.84
2023-03-27T17:40:10.648Z,4.74
2023-03-27T17:42:56.792Z,4.70
2023-03-27T17:45:43.129Z,4.62
2023-03-27T17:48:28.961Z,4.53
2023-03-27T17:51:14.866Z,4.46
2023-03-27T17:54:00.643Z,4.45
2023-03-27T17:56:47.724Z,4.42
2023-03-27T17:59:33.866Z,4.34
2023-03-27T18:02:20.728Z,4.22
2023-03-27T18:05:07.528Z,4.14
2023-03-27T18:07:53.432Z,4.09
2023-03-27T18:10:43.915Z,3.93
2023-03-27T18:13:31.083Z,3.88
2023-03-27T18:16:18.334Z,3.81
2023-03-27T18:19:04.389Z,3.76
2023-03-27T18:21:50.132Z,3.71
2023-03-27T18:24:36.246Z,3.64
2023-03-27T18:27:21.978Z,3.59
2023-03-27T18:30:12.171Z,3.47
2023-03-27T18:32:58.275Z,3.43
2023-03-27T18:35:44.591Z,3.36
2023-03-27T18:38:30.446Z,3.30
2023-03-27T18:41:16.518Z,3.25
2023-03-27T18:44:02.228Z,3.20
2023-03-27T18:46:49.406Z,3.17
2023-03-27T18:49:35.274Z,3.13
2023-03-27T18:52:21.328Z,3.08
2023-03-27T18:55:08.153Z,3.01
2023-03-27T18:57:54.318Z,2.91
2023-03-27T19:00:40.408Z,2.88
2023-03-27T19:03:30.247Z,2.84
2023-03-27T19:06:18.081Z,2.78
2023-03-27T19:09:05.489Z,2.71
2023-03-27T19:11:55.185Z,2.68
2023-03-27T19:15:09.837Z,2.63
2023-03-27T19:18:25.440Z,2.51
2023-03-27T19:21:25.467Z,2.48
2023-03-27T19:24:21.630Z,2.43
2023-03-27T19:27:08.204Z,2.36
2023-03-27T19:30:11.232Z,2.31
2023-03-27T19:32:58.134Z,2.25
2023-03-27T19:35:44.295Z,2.21
2023-03-27T19:38:33.783Z,2.13
2023-03-27T19:41:19.574Z,2.16
2023-03-27T19:44:05.545Z,2.15
2023-03-27T19:46:51.426Z,2.16
2023-03-27T19:49:37.762Z,2.19
2023-03-27T19:52:37.512Z,2.22
2023-03-27T19:55:25.714Z,2.22
2023-03-27T19:58:11.745Z,2.23
2023-03-27T20:00:58.171Z,2.21
2023-03-27T20:03:44.239Z,2.21
2023-03-27T20:06:30.820Z,2.19
2023-03-27T20:09:16.714Z,2.17
2023-03-27T20:12:03.973Z,2.13
2023-03-27T20:15:02.280Z,2.13
2023-03-27T20:17:56.502Z,2.12
2023-03-27T20:20:42.317Z,2.07
2023-03-27T20:23:32.886Z,2.06
2023-03-27T20:26:21.174Z,2.05
2023-03-27T20:29:13.188Z,2.03
2023-03-27T20:31:59.200Z,1.99
2023-03-27T20:34:46.150Z,1.99
2023-03-27T20:37:34.128Z,1.98
2023-03-27T20:43:35.919Z,1.89
2023-03-27T20:46:23.112Z,1.86
2023-03-27T20:49:09.334Z,1.82
2023-03-27T20:51:57.030Z,1.81
2023-03-27T20:54:42.875Z,1.79
2023-03-27T20:57:31.344Z,1.78
2023-03-27T21:00:17.630Z,1.73
2023-03-27T21:03:05.173Z,1.71
2023-03-27T21:05:51.515Z,1.70
2023-03-27T21:08:37.558Z,1.70
2023-03-27T21:11:23.200Z,1.68
2023-03-27T21:14:09.003Z,1.71
2023-03-27T21:16:54.893Z,1.71
2023-03-27T21:19:41.931Z,1.73
2023-03-27T21:22:27.661Z,1.76
2023-03-27T21:25:13.552Z,1.79
2023-03-27T21:27:59.311Z,1.84
2023-03-27T21:30:47.083Z,1.88
2023-03-27T21:33:34.821Z,1.90
2023-03-27T21:36:22.526Z,1.90
2023-03-27T21:39:09.018Z,1.93
2023-03-27T21:41:55.263Z,1.95
2023-03-27T21:44:41.215Z,1.97
2023-03-27T21:47:37.288Z,1.98
2023-03-27T21:50:31.106Z,2.03
2023-03-27T21:53:18.106Z,2.04
2023-03-27T21:56:04.218Z,2.07
2023-03-27T21:58:50.254Z,2.08
2023-03-27T22:01:36.658Z,2.09
2023-03-27T22:04:22.626Z,2.10
2023-03-27T22:07:08.419Z,2.10
2023-03-27T22:09:55.673Z,2.15
2023-03-27T22:12:41.715Z,2.16
2023-03-27T22:15:27.497Z,2.19
2023-03-27T22:18:13.489Z,2.20
2023-03-27T22:20:59.920Z,2.25
2023-03-27T22:23:46.334Z,2.23
2023-03-27T22:26:34.897Z,2.29
2023-03-27T22:29:21.274Z,2.31
2023-03-27T22:32:07.378Z,2.29
2023-03-27T22:34:53.421Z,2.33
2023-03-27T22:37:39.936Z,2.37
2023-03-27T22:40:25.690Z,2.37
2023-03-27T22:43:23.073Z,2.34
2023-03-27T22:46:10.067Z,2.34
2023-03-27T22:48:56.592Z,2.26
2023-03-27T22:51:42.570Z,2.28
2023-03-27T22:54:28.506Z,2.23
2023-03-27T22:57:14.422Z,2.17
2023-03-27T23:00:01.613Z,2.14
2023-03-27T23:02:47.792Z,2.10
2023-03-27T23:05:38.296Z,2.05
2023-03-27T23:08:27.297Z,1.99
2023-03-27T23:11:20.464Z,1.97
2023-03-27T23:14:33.212Z,1.98
2023-03-27T23:20:28.405Z,1.91
2023-03-27T23:23:14.346Z,1.90
2023-03-27T23:26:00.428Z,1.91
2023-03-27T23:28:46.652Z,1.86
2023-03-27T23:31:32.428Z,1.87
2023-03-27T23:34:19.406Z,1.85
2023-03-27T23:37:05.943Z,1.81
2023-03-27T23:39:51.919Z,1.78
2023-03-27T23:42:37.766Z,1.77
2023-03-27T23:45:23.615Z,1.72
2023-03-27T23:48:09.231Z,1.72
2023-03-27T23:50:56.925Z,1.69
2023-03-27T23:53:43.405Z,1.72
2023-03-27T23:56:29.133Z,1.72
2023-03-27T23:59:15.284Z,1.74
